Relevés horaires Chievres (Belgique)


Relevés horaires à Chievres - Samedi 12 Mars 2022
Heure UTC1 Température [°C] Vent [km/h] Hum. [%] Pres.4 [hPa] Visi. [Km] Nébu. [octa] Préc.5 [mm] Cond.
2m. Res. Ros. Dir.2 Vit. Moy. Raf.3
23:00 9.7 7.8 4.7 S 13.0 -- 20.4 71 1013.6(-1.0/3h) 20 -- -- --
22:00 9.8 8.2 4.5 S 11.1 -- 20.4 70 1013.7(-0.5/3h) 20 -- -- --
21:00 9.5 7.8 5.2 S 11.1 -- 22.2 74 1014.2(-0.1/3h) 20 -- -- NA
20:00 10.2 8.7 4.5 S 11.1 -- 20.4 68 1014.6(0.3/3h) 20 -- -- --
19:00 10.4 9.6 4.8 SSE 7.4 -- 18.5 68 1014.3(0.0/3h) 20 -- -- --
18:00 11.3 10 4.7 SSE 11.1 -- 18.5 64 1014.3(-0.2/3h) 20 -- -- --
17:00 11.8 11.2 5.4 SSE 7.4 -- 16.7 65 1014.2(-0.9/3h) 20 -- -- --
16:00 12.2 11.7 5.6 SSE 7.4 -- 11.1 64 1014.2(-1.5/3h) 20 -- -- --
15:00 12.3 11.8 5.9 SSE 7.4 -- 16.7 65 1014.7(-1.7/3h) 20 -- -- --
14:00 12.7 12.3 5.0 SSO 7.4 -- 13.0 59 1015.1(-1.4/3h) 20 -- -- --
13:00 12.5 12.1 4.9 SSO 7.4 -- 16.7 60 1015.7(-0.6/3h) 20 -- -- --
12:00 11.9 10.7 5.3 SSO 11.1 -- 18.5 64 1016.3(-0.1/3h) 20 -- -- --
11:00 10.9 9.3 5.7 S 13.0 -- 16.7 70 1016.7(0.7/3h) 20 -- -- --
10:00 10.3 8.8 5.6 S 11.1 -- 16.7 73 1016.6(1.6/3h) 20 -- -- --
09:00 9.6 7.7 5.9 S 13.0 -- 18.5 78 1016.7(2.5/3h) 20 -- -- --
08:00 8.4 6.2 5.7 S 13.0 -- 18.5 83 1016(1.9/3h) 20 -- -- --
07:00 7.5 5.8 5.2 S 9.3 -- 13.0 85 1015(1.3/3h) 20 -- -- --
06:00 7.5 6.2 5.3 S 7.4 -- 18.5 86 1014.2(0.8/3h) 20 -- 0.3/12h
NA
05:00 7.3 6 5.2 S 7.4 -- 16.7 86 1014(0.9/3h) 20 -- -- --
04:00 8.7 6.9 6.0 S 11.1 -- 18.5 83 1013.6(0.9/3h) 20 -- -- --
03:00 8.8 7.3 6.5 S 9.3 -- 18.5 85 1013.2(1.1/3h) 20 -- -- NA
02:00 9.1 7.4 6.3 S 11.1 -- 18.5 83 1013(1.0/3h) 14 -- -- Il y a une bruine faible et continue à la station au moment de l'observation
01:00 9.6 7.7 6.7 S 13.0 -- 18.5 82 1012.6(0.8/3h) 20 -- -- --
00:00 9.5 8.2 7.1 S 9.3 -- 16.7 85 1012.1(0.3/3h) 20 -- 0.2/6h
NA

1 Coordinated Universal Time. Actuellement il est 01:00 locale et 00:00 UTC.

2 Le vent souffle depuis la direction indiquée vers la direction oposée.

3 Les rafales max. sont disponible 40 min après l'heure du relevé.

4 Pour les stations d'altitude (plus de 600m) le géopotentiel du niveau le plus proche de la pression obligatoire est indiqué.

5 Les stations disposant d'un diffuseur peuvent indiquer "trace". Cela signifie que des précipitations ont touchés le sol mais que la quantité est inférieure à 0.1 mm.

Récapitulatif de la journée
Température [°C] Vent [km/h] Ensoleillement4 [h] Precipitations totale5 [mm] Pression [Hpa]
Min1 Max.2 Moy.3 Max. Min Max.
7.2 13.0 0 22.2 0 h 0 min 0 1012.1 1016.7

1 Température minimale relevée entre 18:00 UTC la veille et 18:00 UTC le jour donné.

2 Température maximale relevée entre 06:00 UTC le jour donné et 06:00 UTC le lendemain.

3 Vent moyen de la journée basé sur les relevés horaires.

4 Ensoleillement en heures relevé entre 06:00 UTC la veille et 06:00 UTC le jour donné.

5 Précipitations totales tombées entre 06:00 UTC la jour donné et 06:00 UTC le lendemain.

Graphiques horaires